aviador You're here:

KMSP Decoded Metar

MINNEAPOLIS in MN, USA
Report Time2018-07-22 11:53:00
UTC Time2018-07-22 12:46:25
Flight Rules mvfr MVFR
Wind040° at 07 kt
W.Decomp.*RWY 04: 7.0 kt HW -0 kt LCW
RWY 35: 4.5 kt HW 5.4 kt RCW
RWY 12: 1.2 kt HW 6.9 kt LCW
W.Rank040° ranks 36
Current wind is below 040° avg. (7.5)
Visibility9999 m
Phenomena:N/A
Clouds:Broken 014 Hf
Expected CloudBase > 800 ft AGL from Temp-Dew spread
Ceiling1,400 ft
Temp18°C (ISA +5)
Dew Point16°C (88% RH)
AAT17.5°C
QNH1019 hPa
Density Alt1,467 ft
Elevation869 ft
Report Wrong Elevation
Raw Report
KMSP 221153Z 04007KT 10SM BKN014 18/16 A3010 RMK AO2 SLP190
T01830161 10211 20178 51010=

Extra information for KMSP:More info

Metar Taf Metar & Taf Last 4 Metars F.Rules Stats Wind Profile Meteogram Temp Stats Airport Information Weather charts Add Link Nearby VenuesMetar ALERT Operation Metar Decoded Social comments

AIRNAV info for KMSP